createdAt,value
2018-05-25T00:00:14.546Z,15.30
2018-05-25T00:02:40.978Z,15.30
2018-05-25T00:05:07.374Z,15.00
2018-05-25T00:07:33.871Z,15.20
2018-05-25T00:10:01.238Z,15.00
2018-05-25T00:12:27.639Z,15.00
2018-05-25T00:14:54.045Z,15.10
2018-05-25T00:17:20.428Z,15.00
2018-05-25T00:19:46.932Z,14.80
2018-05-25T00:22:14.425Z,15.20
2018-05-25T00:24:40.902Z,15.00
2018-05-25T00:27:07.298Z,15.20
2018-05-25T00:29:33.685Z,15.20
2018-05-25T00:32:00.096Z,15.10
2018-05-25T00:34:26.503Z,15.10
2018-05-25T00:36:52.932Z,15.10
2018-05-25T00:39:19.328Z,15.10
2018-05-25T00:41:46.451Z,15.10
2018-05-25T00:44:19.866Z,15.10
2018-05-25T00:46:46.259Z,15.10
2018-05-25T00:49:12.659Z,15.10
2018-05-25T00:51:39.103Z,15.20
2018-05-25T00:54:06.227Z,15.10
2018-05-25T00:56:33.364Z,15.10
2018-05-25T00:59:00.488Z,15.10
2018-05-25T01:01:26.902Z,15.10
2018-05-25T01:03:53.282Z,15.10
2018-05-25T01:06:19.907Z,15.10
2018-05-25T01:08:47.399Z,15.10
2018-05-25T01:11:13.883Z,15.00
2018-05-25T01:13:40.313Z,15.10
2018-05-25T01:16:06.719Z,15.00
2018-05-25T01:18:33.132Z,15.10
2018-05-25T01:20:59.695Z,15.10
2018-05-25T01:23:26.149Z,15.00
2018-05-25T01:25:52.534Z,15.10
2018-05-25T01:28:18.920Z,15.00
2018-05-25T01:30:45.308Z,14.90
2018-05-25T01:33:12.037Z,14.90
2018-05-25T01:35:38.534Z,14.90
2018-05-25T01:38:04.973Z,14.90
2018-05-25T01:40:31.374Z,14.90
2018-05-25T01:42:57.842Z,14.90
2018-05-25T01:45:24.997Z,14.80
2018-05-25T01:47:52.170Z,14.90
2018-05-25T01:50:18.610Z,14.80
2018-05-25T01:52:45.095Z,14.70
2018-05-25T01:55:11.502Z,14.80
2018-05-25T01:57:37.927Z,14.70
2018-05-25T02:00:04.335Z,14.60
2018-05-25T02:02:30.713Z,12.70
2018-05-25T02:04:57.920Z,14.50
2018-05-25T02:07:25.163Z,14.40
2018-05-25T02:09:52.317Z,14.40
2018-05-25T02:12:19.445Z,14.40
2018-05-25T02:14:45.875Z,14.40
2018-05-25T02:17:13.021Z,14.40
2018-05-25T02:19:41.337Z,14.40
2018-05-25T02:22:07.762Z,14.30
2018-05-25T02:24:34.136Z,14.40
2018-05-25T02:27:00.608Z,14.40
2018-05-25T02:29:27.048Z,14.30
2018-05-25T02:31:54.184Z,14.40
2018-05-25T02:34:20.671Z,14.40
2018-05-25T02:36:47.088Z,14.40
2018-05-25T02:39:13.466Z,14.40
2018-05-25T02:41:40.158Z,14.40
2018-05-25T02:44:06.644Z,14.40
2018-05-25T02:46:33.123Z,14.10
2018-05-25T02:48:59.507Z,14.30
2018-05-25T02:51:25.939Z,14.30
2018-05-25T02:53:53.217Z,14.30
2018-05-25T02:56:19.657Z,14.30
2018-05-25T02:58:46.871Z,14.20
2018-05-25T03:01:13.279Z,14.20
2018-05-25T03:03:39.683Z,14.10
2018-05-25T03:06:06.285Z,15.10
2018-05-25T03:08:32.713Z,13.90
2018-05-25T03:10:59.119Z,13.80
2018-05-25T03:13:25.501Z,13.80
2018-05-25T03:15:52.669Z,13.80
2018-05-25T03:18:19.277Z,13.90
2018-05-25T03:20:45.995Z,13.70
2018-05-25T03:23:12.436Z,13.80
2018-05-25T03:25:38.949Z,13.80
2018-05-25T03:28:05.314Z,13.60
2018-05-25T03:30:32.483Z,13.60
2018-05-25T03:32:59.631Z,13.60
2018-05-25T03:35:26.958Z,13.50
2018-05-25T03:37:53.370Z,13.50
2018-05-25T03:40:22.624Z,13.40
2018-05-25T03:42:49.750Z,13.40
2018-05-25T03:45:16.184Z,13.40
2018-05-25T03:47:43.337Z,13.40
2018-05-25T03:50:10.525Z,13.40
2018-05-25T03:52:36.896Z,13.40
2018-05-25T03:55:03.280Z,13.40
2018-05-25T03:57:29.674Z,13.50
2018-05-25T04:00:15.530Z,13.40
2018-05-25T04:02:41.956Z,13.40
2018-05-25T04:05:09.215Z,13.50
2018-05-25T04:07:35.684Z,13.50
2018-05-25T04:10:02.896Z,13.60
2018-05-25T04:12:29.358Z,13.60
2018-05-25T04:14:55.765Z,13.60
2018-05-25T04:17:22.173Z,13.60
2018-05-25T04:19:48.587Z,13.60
2018-05-25T04:22:15.729Z,13.70
2018-05-25T04:24:42.928Z,13.70
2018-05-25T04:27:09.362Z,13.70
2018-05-25T04:29:35.769Z,13.80
2018-05-25T04:32:02.201Z,13.80
2018-05-25T04:34:28.929Z,13.80
2018-05-25T04:36:56.151Z,13.90
2018-05-25T04:39:22.574Z,13.90
2018-05-25T04:41:48.961Z,14.00
2018-05-25T04:44:15.452Z,14.10
2018-05-25T04:46:41.892Z,14.10
2018-05-25T04:49:08.287Z,14.20
2018-05-25T04:51:34.677Z,14.20
2018-05-25T04:54:01.905Z,14.40
2018-05-25T04:56:29.108Z,14.40
2018-05-25T04:58:55.710Z,14.40
2018-05-25T05:01:22.047Z,14.50
2018-05-25T05:03:48.454Z,14.60
2018-05-25T05:06:14.848Z,14.60
2018-05-25T05:08:41.274Z,14.70
2018-05-25T05:11:07.658Z,14.80
2018-05-25T05:13:34.900Z,15.00
2018-05-25T05:16:01.297Z,15.00
2018-05-25T05:18:27.918Z,15.10
2018-05-25T05:20:55.663Z,15.10
2018-05-25T05:23:22.034Z,15.30
2018-05-25T05:25:48.739Z,15.30
2018-05-25T05:28:15.195Z,15.30
2018-05-25T05:30:41.639Z,15.50
2018-05-25T05:33:08.557Z,15.60
2018-05-25T05:35:35.112Z,15.70
2018-05-25T05:38:01.494Z,15.80
2018-05-25T05:40:29.034Z,15.90
2018-05-25T05:42:55.433Z,15.90
2018-05-25T05:45:22.349Z,16.10
2018-05-25T05:47:49.019Z,16.10
2018-05-25T05:50:15.554Z,16.10
2018-05-25T05:52:42.100Z,16.40
2018-05-25T05:55:08.748Z,16.50
2018-05-25T05:57:35.165Z,16.60
2018-05-25T06:00:01.632Z,16.70
2018-05-25T06:02:28.112Z,16.80
2018-05-25T06:04:54.837Z,16.90
2018-05-25T06:07:21.216Z,16.90
2018-05-25T06:09:47.615Z,17.00
2018-05-25T06:12:14.410Z,17.10
2018-05-25T06:14:40.776Z,17.30
2018-05-25T06:17:08.139Z,17.40
2018-05-25T06:19:34.498Z,17.30
2018-05-25T06:22:00.931Z,17.40
2018-05-25T06:24:27.324Z,17.60
2018-05-25T06:26:53.768Z,17.70
2018-05-25T06:29:20.145Z,17.90
2018-05-25T06:31:46.530Z,18.10
2018-05-25T06:34:13.910Z,18.10
2018-05-25T06:36:40.282Z,18.00
2018-05-25T06:39:06.754Z,18.30
2018-05-25T06:41:33.216Z,18.30
2018-05-25T06:44:00.357Z,18.50
2018-05-25T06:46:27.162Z,18.40
2018-05-25T06:48:54.288Z,18.60
2018-05-25T06:51:21.059Z,18.40
2018-05-25T06:53:47.405Z,18.70
2018-05-25T06:56:14.124Z,18.80
2018-05-25T06:58:41.477Z,18.90
2018-05-25T07:01:08.819Z,19.00
2018-05-25T07:03:35.965Z,19.10
2018-05-25T07:06:09.976Z,19.20
2018-05-25T07:08:37.163Z,19.20
2018-05-25T07:11:03.550Z,19.10
2018-05-25T07:13:30.732Z,19.30
2018-05-25T07:15:57.195Z,19.30
2018-05-25T07:18:23.577Z,19.40
2018-05-25T07:20:50.717Z,19.60
2018-05-25T07:23:17.182Z,19.50
2018-05-25T07:25:43.558Z,19.60
2018-05-25T07:28:10.014Z,19.70
2018-05-25T07:30:36.379Z,19.70
2018-05-25T07:33:04.893Z,19.80
2018-05-25T07:35:31.347Z,19.80
2018-05-25T07:37:57.718Z,19.40
2018-05-25T07:40:24.159Z,19.90
2018-05-25T07:42:51.232Z,20.00
2018-05-25T07:45:17.713Z,20.00
2018-05-25T07:47:44.115Z,20.20
2018-05-25T07:50:10.545Z,20.20
2018-05-25T07:52:36.895Z,20.20
2018-05-25T07:55:03.677Z,20.40
2018-05-25T07:57:30.446Z,20.40
2018-05-25T07:59:56.886Z,20.80
2018-05-25T08:02:23.310Z,20.80
2018-05-25T08:04:49.738Z,21.00
2018-05-25T08:07:16.144Z,21.00
2018-05-25T08:09:43.298Z,21.10
2018-05-25T08:12:10.476Z,21.20
2018-05-25T08:14:36.953Z,21.20
2018-05-25T08:17:03.445Z,19.00
2018-05-25T08:19:29.881Z,21.30
2018-05-25T08:21:56.325Z,21.00
2018-05-25T08:24:23.023Z,21.40
2018-05-25T08:26:49.412Z,21.60
2018-05-25T08:29:15.957Z,21.70
2018-05-25T08:31:42.351Z,21.90
2018-05-25T08:34:08.758Z,21.90
2018-05-25T08:36:35.163Z,22.00
2018-05-25T08:39:01.588Z,22.10
2018-05-25T08:41:28.054Z,22.20
2018-05-25T08:43:54.794Z,22.30
2018-05-25T08:46:21.179Z,22.40
2018-05-25T08:48:47.693Z,22.50
2018-05-25T08:51:14.296Z,22.60
2018-05-25T08:53:40.723Z,22.70
2018-05-25T08:56:07.862Z,22.90
2018-05-25T08:58:35.600Z,23.00
2018-05-25T09:01:02.076Z,23.10
2018-05-25T09:03:29.325Z,23.00
2018-05-25T09:05:55.728Z,23.00
2018-05-25T09:08:22.207Z,23.10
2018-05-25T09:10:48.699Z,22.90
2018-05-25T09:13:16.665Z,23.00
2018-05-25T09:15:43.065Z,23.10
2018-05-25T09:18:09.501Z,23.20
2018-05-25T09:20:35.928Z,23.40
2018-05-25T09:23:02.447Z,23.60
2018-05-25T09:25:28.959Z,23.70
2018-05-25T09:27:56.157Z,24.00
2018-05-25T09:30:22.723Z,23.90
2018-05-25T09:32:49.109Z,24.10
2018-05-25T09:35:15.511Z,24.20
2018-05-25T09:37:42.736Z,24.20
2018-05-25T09:40:09.124Z,24.20
2018-05-25T09:42:35.709Z,24.30
2018-05-25T09:45:03.405Z,24.50
2018-05-25T09:47:29.814Z,24.70
2018-05-25T09:49:57.078Z,25.10
2018-05-25T09:52:25.365Z,25.30
2018-05-25T09:54:51.771Z,25.30
2018-05-25T09:57:19.833Z,25.00
2018-05-25T09:59:46.284Z,25.00
2018-05-25T10:02:13.610Z,25.30
2018-05-25T10:04:40.077Z,25.20
2018-05-25T10:07:07.390Z,25.70
2018-05-25T10:09:33.757Z,25.40
2018-05-25T10:12:00.983Z,26.00
2018-05-25T10:14:27.450Z,25.00
2018-05-25T10:16:54.639Z,26.20
2018-05-25T10:19:22.170Z,26.20
2018-05-25T10:21:48.704Z,26.50
2018-05-25T10:24:15.088Z,26.50
2018-05-25T10:26:41.745Z,27.00
2018-05-25T10:29:08.119Z,27.00
2018-05-25T10:31:34.602Z,27.10
2018-05-25T10:34:01.008Z,27.10
2018-05-25T10:36:28.645Z,26.70
2018-05-25T10:38:55.100Z,26.30
2018-05-25T10:41:21.494Z,26.20
2018-05-25T10:43:48.709Z,25.90
2018-05-25T10:46:15.238Z,25.90
2018-05-25T10:48:41.632Z,25.70
2018-05-25T10:51:08.187Z,25.70
2018-05-25T10:53:34.621Z,25.30
2018-05-25T10:56:01.095Z,24.90
2018-05-25T10:58:27.446Z,25.20
2018-05-25T11:00:54.081Z,25.40
2018-05-25T11:03:20.457Z,25.40
2018-05-25T11:05:46.823Z,26.10
2018-05-25T11:08:13.231Z,26.40
2018-05-25T11:10:39.646Z,26.40
2018-05-25T11:13:06.037Z,26.10
2018-05-25T11:15:33.233Z,25.60
2018-05-25T11:17:59.608Z,25.60
2018-05-25T11:20:26.766Z,25.60
2018-05-25T11:22:53.900Z,25.80
2018-05-25T11:25:21.112Z,25.50
2018-05-25T11:27:47.489Z,25.20
2018-05-25T11:30:14.635Z,25.30
2018-05-25T11:32:42.024Z,25.60
2018-05-25T11:35:08.910Z,25.60
2018-05-25T11:37:35.356Z,25.90
2018-05-25T11:40:01.821Z,26.20
2018-05-25T11:42:29.050Z,26.30
2018-05-25T11:44:55.469Z,26.30
2018-05-25T11:47:21.868Z,26.30
2018-05-25T11:49:48.380Z,26.20
2018-05-25T11:52:15.216Z,26.20
2018-05-25T11:54:41.622Z,26.20
2018-05-25T11:57:08.038Z,26.60
2018-05-25T11:59:34.422Z,26.70
2018-05-25T12:02:00.834Z,26.90
2018-05-25T12:04:27.935Z,27.00
2018-05-25T12:06:54.465Z,27.00
2018-05-25T12:09:20.853Z,26.80
2018-05-25T12:11:48.005Z,27.00
2018-05-25T12:14:15.140Z,26.90
2018-05-25T12:16:42.322Z,26.90
2018-05-25T12:19:08.720Z,27.00
2018-05-25T12:21:35.113Z,27.30
2018-05-25T12:24:01.482Z,27.10
2018-05-25T12:26:27.857Z,27.20
2018-05-25T12:28:54.597Z,27.20
2018-05-25T12:31:20.987Z,27.30
2018-05-25T12:33:47.350Z,27.30
2018-05-25T12:36:13.918Z,27.60
2018-05-25T12:38:40.302Z,27.40
2018-05-25T12:41:07.447Z,27.10
2018-05-25T12:43:34.583Z,27.30
2018-05-25T12:46:01.007Z,27.30
2018-05-25T12:48:27.403Z,27.40
2018-05-25T12:50:53.795Z,27.20
2018-05-25T12:53:20.890Z,27.50
2018-05-25T12:55:47.482Z,27.50
2018-05-25T12:58:16.562Z,27.60
2018-05-25T13:00:42.925Z,27.60
2018-05-25T13:03:12.763Z,27.60
2018-05-25T13:05:41.336Z,27.50
2018-05-25T13:08:09.714Z,27.90
2018-05-25T13:10:36.669Z,28.10
2018-05-25T13:13:06.145Z,27.70
2018-05-25T13:15:32.562Z,27.70
2018-05-25T13:17:59.746Z,27.40
2018-05-25T13:20:26.140Z,27.40
2018-05-25T13:22:53.315Z,27.10
2018-05-25T13:25:19.701Z,27.10
2018-05-25T13:27:46.091Z,27.60
2018-05-25T13:30:12.668Z,27.80
2018-05-25T13:32:39.030Z,28.10
2018-05-25T13:35:06.272Z,28.60
2018-05-25T13:37:33.412Z,28.90
2018-05-25T13:39:59.826Z,28.80
2018-05-25T13:42:26.198Z,29.50
2018-05-25T13:44:53.456Z,30.80
2018-05-25T13:47:19.946Z,30.80
2018-05-25T13:49:46.393Z,31.60
2018-05-25T13:52:12.781Z,32.00
2018-05-25T13:54:39.212Z,32.40
2018-05-25T13:57:05.834Z,32.30
2018-05-25T13:59:32.301Z,32.30
2018-05-25T14:01:58.721Z,32.00
2018-05-25T14:04:25.818Z,31.50
2018-05-25T14:06:53.251Z,32.60
2018-05-25T14:09:19.724Z,32.60
2018-05-25T14:11:47.073Z,32.50
2018-05-25T14:14:14.413Z,32.90
2018-05-25T14:16:41.524Z,32.60
2018-05-25T14:19:08.360Z,32.60
2018-05-25T14:21:34.736Z,32.50
2018-05-25T14:24:01.108Z,31.90
2018-05-25T14:26:27.692Z,31.20
2018-05-25T14:28:55.553Z,31.60
2018-05-25T14:31:22.115Z,31.60
2018-05-25T14:33:49.220Z,33.80
2018-05-25T14:36:15.778Z,33.70
2018-05-25T14:38:42.241Z,34.20
2018-05-25T14:41:09.312Z,33.10
2018-05-25T14:43:35.865Z,33.00
2018-05-25T14:46:02.290Z,32.60
2018-05-25T14:48:28.660Z,33.00
2018-05-25T14:50:55.810Z,32.80
2018-05-25T14:53:22.276Z,32.40
2018-05-25T14:55:49.613Z,34.30
2018-05-25T14:58:16.843Z,34.10
2018-05-25T15:00:43.360Z,34.10
2018-05-25T15:03:09.941Z,34.20
2018-05-25T15:05:36.417Z,33.80
2018-05-25T15:08:03.002Z,33.80
2018-05-25T15:10:30.194Z,33.40
2018-05-25T15:12:57.133Z,33.40
2018-05-25T15:15:23.644Z,33.10
2018-05-25T15:17:50.947Z,34.60
2018-05-25T15:20:17.307Z,34.60
2018-05-25T15:22:43.821Z,34.90
2018-05-25T15:25:10.389Z,34.80
2018-05-25T15:27:37.499Z,34.90
2018-05-25T15:30:03.941Z,34.70
2018-05-25T15:32:30.398Z,34.80
2018-05-25T15:34:57.010Z,33.80
2018-05-25T15:37:23.384Z,32.90
2018-05-25T15:39:50.620Z,32.40
2018-05-25T15:42:17.755Z,32.80
2018-05-25T15:44:51.174Z,32.80
2018-05-25T15:47:18.401Z,33.80
2018-05-25T15:49:45.184Z,33.80
2018-05-25T15:52:12.376Z,33.70
2018-05-25T15:54:38.768Z,33.70
2018-05-25T15:57:05.151Z,33.70
2018-05-25T15:59:31.624Z,32.30
2018-05-25T16:01:58.868Z,34.20
2018-05-25T16:04:26.025Z,34.40
2018-05-25T16:06:53.968Z,34.00
2018-05-25T16:09:21.296Z,33.80
2018-05-25T16:11:48.230Z,33.40
2018-05-25T16:14:14.658Z,32.80
2018-05-25T16:16:41.767Z,33.40
2018-05-25T16:19:08.866Z,33.10
2018-05-25T16:21:35.279Z,33.30
2018-05-25T16:24:01.832Z,33.60
2018-05-25T16:26:28.256Z,33.40
2018-05-25T16:28:54.751Z,33.50
2018-05-25T16:31:21.100Z,33.80
2018-05-25T16:33:47.501Z,34.30
2018-05-25T16:36:14.630Z,34.60
2018-05-25T16:38:41.007Z,34.60
2018-05-25T16:41:08.229Z,33.70
2018-05-25T16:43:34.712Z,33.60
2018-05-25T16:46:01.065Z,33.70
2018-05-25T16:48:27.470Z,33.80
2018-05-25T16:50:53.961Z,34.30
2018-05-25T16:53:20.317Z,34.30
2018-05-25T16:55:47.781Z,33.90
2018-05-25T16:58:14.986Z,33.60
2018-05-25T17:00:41.378Z,33.50
2018-05-25T17:03:07.723Z,33.60
2018-05-25T17:05:34.129Z,33.10
2018-05-25T17:08:00.678Z,33.60
2018-05-25T17:10:27.301Z,33.80
2018-05-25T17:12:53.723Z,33.50
2018-05-25T17:15:20.213Z,32.80
2018-05-25T17:17:46.684Z,32.10
2018-05-25T17:20:13.817Z,31.60
2018-05-25T17:22:40.244Z,31.50
2018-05-25T17:25:06.957Z,31.40
2018-05-25T17:27:33.697Z,31.60
2018-05-25T17:30:00.326Z,31.80
2018-05-25T17:32:26.843Z,31.40
2018-05-25T17:34:53.234Z,31.70
2018-05-25T17:37:20.719Z,31.20
2018-05-25T17:39:47.584Z,31.20
2018-05-25T17:42:14.119Z,30.90
2018-05-25T17:44:41.346Z,31.00
2018-05-25T17:47:08.444Z,31.70
2018-05-25T17:49:34.861Z,31.70
2018-05-25T17:52:01.240Z,32.00
2018-05-25T17:54:28.325Z,31.60
2018-05-25T17:56:54.701Z,31.00
2018-05-25T17:59:21.073Z,30.30
2018-05-25T18:01:47.599Z,29.50
2018-05-25T18:04:14.803Z,28.50
2018-05-25T18:06:41.207Z,28.50
2018-05-25T18:09:07.602Z,28.10
2018-05-25T18:11:34.007Z,27.90
2018-05-25T18:14:00.697Z,27.50
2018-05-25T18:16:28.155Z,27.10
2018-05-25T18:18:54.596Z,27.00
2018-05-25T18:21:20.999Z,27.00
2018-05-25T18:23:47.462Z,26.60
2018-05-25T18:26:14.085Z,26.40
2018-05-25T18:28:41.204Z,26.00
2018-05-25T18:31:07.786Z,25.90
2018-05-25T18:33:34.420Z,25.80
2018-05-25T18:36:00.869Z,25.80
2018-05-25T18:38:27.390Z,25.60
2018-05-25T18:40:53.796Z,25.40
2018-05-25T18:43:20.932Z,25.20
2018-05-25T18:45:48.793Z,25.10
2018-05-25T18:48:15.200Z,25.10
2018-05-25T18:50:41.605Z,25.10
2018-05-25T18:53:08.044Z,25.00
2018-05-25T18:55:34.522Z,24.60
2018-05-25T18:58:00.910Z,24.70
2018-05-25T19:00:27.357Z,24.60
2018-05-25T19:02:53.758Z,24.50
2018-05-25T19:05:21.013Z,24.30
2018-05-25T19:07:48.278Z,24.30
2018-05-25T19:10:14.689Z,24.30
2018-05-25T19:12:41.877Z,24.20
2018-05-25T19:15:08.282Z,24.20
2018-05-25T19:17:34.647Z,24.10
2018-05-25T19:20:01.179Z,24.00
2018-05-25T19:22:27.657Z,24.00
2018-05-25T19:24:54.824Z,23.90
2018-05-25T19:27:21.993Z,23.80
2018-05-25T19:29:48.516Z,23.70
2018-05-25T19:32:15.703Z,23.60
2018-05-25T19:34:42.409Z,23.50
2018-05-25T19:37:09.617Z,23.40
2018-05-25T19:39:37.689Z,23.40
2018-05-25T19:42:04.369Z,23.40
2018-05-25T19:44:30.904Z,23.30
2018-05-25T19:46:57.294Z,21.90
2018-05-25T19:49:23.761Z,23.20
2018-05-25T19:51:50.946Z,23.10
2018-05-25T19:54:17.357Z,23.10
2018-05-25T19:56:43.712Z,23.10
2018-05-25T19:59:10.913Z,23.00
2018-05-25T20:01:38.054Z,22.90
2018-05-25T20:04:05.528Z,22.80
2018-05-25T20:06:32.691Z,22.80
2018-05-25T20:08:59.123Z,22.70
2018-05-25T20:11:25.616Z,22.70
2018-05-25T20:13:52.052Z,22.70
2018-05-25T20:16:18.507Z,20.70
2018-05-25T20:18:44.847Z,22.50
2018-05-25T20:21:12.076Z,22.40
2018-05-25T20:23:38.541Z,22.40
2018-05-25T20:26:05.039Z,22.10
2018-05-25T20:28:31.471Z,22.10
2018-05-25T20:30:58.664Z,22.20
2018-05-25T20:33:25.097Z,22.20
2018-05-25T20:35:51.553Z,22.10
2018-05-25T20:38:18.028Z,22.00
2018-05-25T20:40:44.763Z,21.90
2018-05-25T20:43:11.198Z,21.80
2018-05-25T20:45:37.665Z,21.80
2018-05-25T20:48:04.121Z,21.70
2018-05-25T20:50:30.612Z,21.80
2018-05-25T20:52:57.752Z,21.70
2018-05-25T20:55:25.013Z,21.70
2018-05-25T20:57:52.486Z,21.70
2018-05-25T21:00:18.881Z,21.40
2018-05-25T21:02:45.377Z,21.50
2018-05-25T21:05:13.618Z,21.50
2018-05-25T21:07:40.165Z,21.50
2018-05-25T21:10:06.745Z,21.50
2018-05-25T21:12:33.220Z,21.40
2018-05-25T21:15:00.570Z,21.30
2018-05-25T21:17:27.895Z,21.20
2018-05-25T21:19:54.314Z,21.20
2018-05-25T21:22:20.802Z,21.20
2018-05-25T21:24:47.954Z,21.10
2018-05-25T21:27:15.123Z,21.10
2018-05-25T21:29:41.570Z,21.10
2018-05-25T21:32:08.282Z,21.00
2018-05-25T21:34:35.427Z,21.00
2018-05-25T21:37:02.582Z,20.90
2018-05-25T21:39:34.632Z,21.00
2018-05-25T21:42:01.867Z,20.90
2018-05-25T21:44:28.225Z,20.90
2018-05-25T21:46:55.349Z,20.80
2018-05-25T21:49:21.748Z,20.80
2018-05-25T21:51:48.349Z,20.80
2018-05-25T21:54:14.987Z,20.70
2018-05-25T21:56:41.484Z,20.70
2018-05-25T21:59:08.013Z,20.60
2018-05-25T22:01:34.380Z,20.60
2018-05-25T22:04:01.635Z,20.50
2018-05-25T22:06:34.759Z,20.50
2018-05-25T22:09:01.342Z,20.50
2018-05-25T22:11:28.484Z,20.40
2018-05-25T22:13:54.915Z,20.40
2018-05-25T22:16:21.337Z,20.40
2018-05-25T22:18:47.757Z,20.40
2018-05-25T22:21:15.512Z,20.10
2018-05-25T22:23:43.308Z,20.30
2018-05-25T22:26:12.015Z,20.30
2018-05-25T22:28:40.526Z,20.20
2018-05-25T22:31:09.283Z,20.20
2018-05-25T22:33:36.413Z,20.20
2018-05-25T22:36:02.817Z,20.00
2018-05-25T22:38:29.176Z,20.10
2018-05-25T22:40:55.578Z,20.10
2018-05-25T22:43:40.913Z,19.90
2018-05-25T22:46:26.680Z,20.00
2018-05-25T22:49:11.701Z,19.90
2018-05-25T22:51:56.717Z,19.90
2018-05-25T22:54:34.480Z,19.80
2018-05-25T22:57:00.877Z,19.80
2018-05-25T22:59:27.376Z,19.80
2018-05-25T23:01:53.781Z,19.80
2018-05-25T23:04:20.211Z,19.70
2018-05-25T23:06:46.625Z,19.60
2018-05-25T23:09:13.048Z,19.60
2018-05-25T23:11:39.474Z,19.60
2018-05-25T23:14:05.873Z,19.50
2018-05-25T23:16:32.244Z,19.50
2018-05-25T23:18:58.660Z,19.50
2018-05-25T23:21:25.810Z,19.40
2018-05-25T23:23:52.933Z,19.50
2018-05-25T23:26:19.329Z,19.50
2018-05-25T23:28:45.732Z,19.50
2018-05-25T23:31:12.140Z,19.40
2018-05-25T23:33:39.280Z,19.30
2018-05-25T23:36:05.854Z,19.30
2018-05-25T23:38:32.221Z,19.20
2018-05-25T23:40:58.645Z,19.20
2018-05-25T23:43:25.347Z,18.70
2018-05-25T23:45:52.571Z,19.10
2018-05-25T23:48:18.979Z,19.00
2018-05-25T23:50:45.368Z,19.10
2018-05-25T23:53:11.753Z,19.00
2018-05-25T23:55:38.856Z,19.00
2018-05-25T23:58:05.348Z,19.00
